sensor_id;sensor_type;location;lat;lon;timestamp;temperature;humidity
5962;DHT22;3007;50.770;0.250;2023-07-31T00:00:51;17.50;99.90
5962;DHT22;3007;50.770;0.250;2023-07-31T00:03:19;17.40;99.90
5962;DHT22;3007;50.770;0.250;2023-07-31T00:05:46;17.40;99.90
5962;DHT22;3007;50.770;0.250;2023-07-31T00:08:13;17.40;99.90
5962;DHT22;3007;50.770;0.250;2023-07-31T00:10:39;17.40;99.90
5962;DHT22;3007;50.770;0.250;2023-07-31T00:13:06;17.30;99.90
5962;DHT22;3007;50.770;0.250;2023-07-31T00:15:33;17.30;99.90
5962;DHT22;3007;50.770;0.250;2023-07-31T00:18:00;17.20;99.90
5962;DHT22;3007;50.770;0.250;2023-07-31T00:20:28;17.30;99.90
5962;DHT22;3007;50.770;0.250;2023-07-31T00:22:55;17.20;99.90
5962;DHT22;3007;50.770;0.250;2023-07-31T00:25:22;17.20;99.90
5962;DHT22;3007;50.770;0.250;2023-07-31T00:27:49;17.20;99.90
5962;DHT22;3007;50.770;0.250;2023-07-31T00:30:16;17.20;99.90
5962;DHT22;3007;50.770;0.250;2023-07-31T00:32:43;17.10;99.90
5962;DHT22;3007;50.770;0.250;2023-07-31T00:35:10;17.10;99.90
5962;DHT22;3007;50.770;0.250;2023-07-31T00:37:38;17.10;99.90
5962;DHT22;3007;50.770;0.250;2023-07-31T00:40:06;17.20;99.90
5962;DHT22;3007;50.770;0.250;2023-07-31T00:42:33;17.20;99.90
5962;DHT22;3007;50.770;0.250;2023-07-31T00:45:00;17.10;99.90
5962;DHT22;3007;50.770;0.250;2023-07-31T00:47:27;17.20;99.90
5962;DHT22;3007;50.770;0.250;2023-07-31T00:49:54;17.10;99.90
5962;DHT22;3007;50.770;0.250;2023-07-31T00:52:22;17.10;99.90
5962;DHT22;3007;50.770;0.250;2023-07-31T00:54:50;17.20;99.90
5962;DHT22;3007;50.770;0.250;2023-07-31T00:57:17;17.10;99.90
5962;DHT22;3007;50.770;0.250;2023-07-31T00:59:44;17.20;99.90
5962;DHT22;3007;50.770;0.250;2023-07-31T01:02:12;17.20;99.90
5962;DHT22;3007;50.770;0.250;2023-07-31T01:04:39;17.20;99.90
5962;DHT22;3007;50.770;0.250;2023-07-31T01:07:10;17.10;99.90
5962;DHT22;3007;50.770;0.250;2023-07-31T01:09:44;17.20;99.90
5962;DHT22;3007;50.770;0.250;2023-07-31T01:12:15;17.10;99.90
5962;DHT22;3007;50.770;0.250;2023-07-31T01:14:51;17.10;99.90
5962;DHT22;3007;50.770;0.250;2023-07-31T01:17:18;17.10;99.90
5962;DHT22;3007;50.770;0.250;2023-07-31T01:19:45;17.10;99.90
5962;DHT22;3007;50.770;0.250;2023-07-31T01:22:38;17.10;99.90
5962;DHT22;3007;50.770;0.250;2023-07-31T01:25:16;17.10;99.90
5962;DHT22;3007;50.770;0.250;2023-07-31T01:27:53;17.10;99.90
5962;DHT22;3007;50.770;0.250;2023-07-31T01:30:27;17.10;99.90
5962;DHT22;3007;50.770;0.250;2023-07-31T01:32:59;17.10;99.90
5962;DHT22;3007;50.770;0.250;2023-07-31T01:35:32;17.10;99.90
5962;DHT22;3007;50.770;0.250;2023-07-31T01:37:59;17.10;99.90
5962;DHT22;3007;50.770;0.250;2023-07-31T01:40:25;17.10;99.90
5962;DHT22;3007;50.770;0.250;2023-07-31T01:42:54;17.10;99.90
5962;DHT22;3007;50.770;0.250;2023-07-31T01:45:21;17.00;99.90
5962;DHT22;3007;50.770;0.250;2023-07-31T01:47:48;17.10;99.90
5962;DHT22;3007;50.770;0.250;2023-07-31T01:50:15;17.10;99.90
5962;DHT22;3007;50.770;0.250;2023-07-31T01:52:41;17.10;99.90
5962;DHT22;3007;50.770;0.250;2023-07-31T01:55:08;17.10;99.90
5962;DHT22;3007;50.770;0.250;2023-07-31T01:57:36;17.10;99.90
5962;DHT22;3007;50.770;0.250;2023-07-31T02:00:06;17.10;99.90
5962;DHT22;3007;50.770;0.250;2023-07-31T02:02:33;17.10;99.90
5962;DHT22;3007;50.770;0.250;2023-07-31T02:05:00;17.10;99.90
5962;DHT22;3007;50.770;0.250;2023-07-31T02:07:27;17.10;99.90
5962;DHT22;3007;50.770;0.250;2023-07-31T02:09:54;17.20;99.90
5962;DHT22;3007;50.770;0.250;2023-07-31T02:12:21;17.20;99.90
5962;DHT22;3007;50.770;0.250;2023-07-31T02:14:47;17.10;99.90
5962;DHT22;3007;50.770;0.250;2023-07-31T02:17:16;17.20;99.90
5962;DHT22;3007;50.770;0.250;2023-07-31T02:19:42;17.20;99.90
5962;DHT22;3007;50.770;0.250;2023-07-31T02:22:09;17.20;99.90
5962;DHT22;3007;50.770;0.250;2023-07-31T02:24:36;17.20;99.90
5962;DHT22;3007;50.770;0.250;2023-07-31T02:27:03;17.20;99.90
5962;DHT22;3007;50.770;0.250;2023-07-31T02:29:30;17.20;99.90
5962;DHT22;3007;50.770;0.250;2023-07-31T02:31:57;17.20;99.90
5962;DHT22;3007;50.770;0.250;2023-07-31T02:34:25;17.30;99.90
5962;DHT22;3007;50.770;0.250;2023-07-31T02:36:52;17.30;99.90
5962;DHT22;3007;50.770;0.250;2023-07-31T02:39:19;17.30;99.90
5962;DHT22;3007;50.770;0.250;2023-07-31T02:41:46;17.30;99.90
5962;DHT22;3007;50.770;0.250;2023-07-31T02:44:13;17.30;99.90
5962;DHT22;3007;50.770;0.250;2023-07-31T02:46:40;17.30;99.90
5962;DHT22;3007;50.770;0.250;2023-07-31T02:49:07;17.30;99.90
5962;DHT22;3007;50.770;0.250;2023-07-31T02:51:35;17.30;99.90
5962;DHT22;3007;50.770;0.250;2023-07-31T02:54:02;17.30;99.90
5962;DHT22;3007;50.770;0.250;2023-07-31T02:56:29;17.30;99.90
5962;DHT22;3007;50.770;0.250;2023-07-31T02:58:56;17.30;99.90
5962;DHT22;3007;50.770;0.250;2023-07-31T03:01:23;17.30;99.90
5962;DHT22;3007;50.770;0.250;2023-07-31T03:03:50;17.30;99.90
5962;DHT22;3007;50.770;0.250;2023-07-31T03:06:17;17.30;99.90
5962;DHT22;3007;50.770;0.250;2023-07-31T03:08:45;15.90;99.90
5962;DHT22;3007;50.770;0.250;2023-07-31T03:11:12;17.30;99.90
5962;DHT22;3007;50.770;0.250;2023-07-31T03:13:39;17.30;99.90
5962;DHT22;3007;50.770;0.250;2023-07-31T03:16:06;17.30;99.90
5962;DHT22;3007;50.770;0.250;2023-07-31T03:18:33;17.30;99.90
5962;DHT22;3007;50.770;0.250;2023-07-31T03:21:00;17.30;99.90
5962;DHT22;3007;50.770;0.250;2023-07-31T03:23:27;17.20;99.90
5962;DHT22;3007;50.770;0.250;2023-07-31T03:25:59;17.20;99.90
5962;DHT22;3007;50.770;0.250;2023-07-31T03:28:26;17.30;99.90
5962;DHT22;3007;50.770;0.250;2023-07-31T03:30:53;17.20;99.90
5962;DHT22;3007;50.770;0.250;2023-07-31T03:33:20;17.20;99.90
5962;DHT22;3007;50.770;0.250;2023-07-31T03:35:47;17.20;99.90
5962;DHT22;3007;50.770;0.250;2023-07-31T03:38:14;17.30;99.90
5962;DHT22;3007;50.770;0.250;2023-07-31T03:40:41;17.20;99.90
5962;DHT22;3007;50.770;0.250;2023-07-31T03:43:09;17.20;99.90
5962;DHT22;3007;50.770;0.250;2023-07-31T03:45:36;17.30;99.90
5962;DHT22;3007;50.770;0.250;2023-07-31T03:48:06;17.30;99.90
5962;DHT22;3007;50.770;0.250;2023-07-31T03:50:34;17.30;99.90
5962;DHT22;3007;50.770;0.250;2023-07-31T03:53:01;17.30;99.90
5962;DHT22;3007;50.770;0.250;2023-07-31T03:55:27;17.30;99.90
5962;DHT22;3007;50.770;0.250;2023-07-31T03:57:54;17.30;99.90
5962;DHT22;3007;50.770;0.250;2023-07-31T04:00:23;17.30;99.90
5962;DHT22;3007;50.770;0.250;2023-07-31T04:02:50;17.30;99.90
5962;DHT22;3007;50.770;0.250;2023-07-31T04:05:17;17.30;99.90
5962;DHT22;3007;50.770;0.250;2023-07-31T04:07:43;17.30;99.90
5962;DHT22;3007;50.770;0.250;2023-07-31T04:10:10;17.30;99.90
5962;DHT22;3007;50.770;0.250;2023-07-31T04:12:37;17.30;99.90
5962;DHT22;3007;50.770;0.250;2023-07-31T04:15:05;17.30;99.90
5962;DHT22;3007;50.770;0.250;2023-07-31T04:17:33;17.40;99.90
5962;DHT22;3007;50.770;0.250;2023-07-31T04:20:00;17.40;99.90
5962;DHT22;3007;50.770;0.250;2023-07-31T04:22:27;17.40;99.90
5962;DHT22;3007;50.770;0.250;2023-07-31T04:24:54;17.30;99.90
5962;DHT22;3007;50.770;0.250;2023-07-31T04:27:21;17.30;99.90
5962;DHT22;3007;50.770;0.250;2023-07-31T04:29:48;17.40;99.90
5962;DHT22;3007;50.770;0.250;2023-07-31T04:32:15;17.40;99.90
5962;DHT22;3007;50.770;0.250;2023-07-31T04:34:43;17.40;99.90
5962;DHT22;3007;50.770;0.250;2023-07-31T04:37:10;17.40;99.90
5962;DHT22;3007;50.770;0.250;2023-07-31T04:39:37;17.40;99.90
5962;DHT22;3007;50.770;0.250;2023-07-31T04:42:04;17.40;99.90
5962;DHT22;3007;50.770;0.250;2023-07-31T04:44:31;17.40;99.90
5962;DHT22;3007;50.770;0.250;2023-07-31T04:46:58;17.40;99.90
5962;DHT22;3007;50.770;0.250;2023-07-31T04:49:25;17.50;99.90
5962;DHT22;3007;50.770;0.250;2023-07-31T04:51:53;17.50;99.90
5962;DHT22;3007;50.770;0.250;2023-07-31T04:54:20;17.40;99.90
5962;DHT22;3007;50.770;0.250;2023-07-31T04:56:47;17.40;99.90
5962;DHT22;3007;50.770;0.250;2023-07-31T04:59:14;17.50;99.90
5962;DHT22;3007;50.770;0.250;2023-07-31T05:01:41;17.40;99.90
5962;DHT22;3007;50.770;0.250;2023-07-31T05:04:08;17.50;99.90
5962;DHT22;3007;50.770;0.250;2023-07-31T05:06:35;17.50;99.90
5962;DHT22;3007;50.770;0.250;2023-07-31T05:09:03;17.60;99.90
5962;DHT22;3007;50.770;0.250;2023-07-31T05:11:30;17.50;99.90
5962;DHT22;3007;50.770;0.250;2023-07-31T05:13:57;17.60;99.90
5962;DHT22;3007;50.770;0.250;2023-07-31T05:16:24;17.60;99.90
5962;DHT22;3007;50.770;0.250;2023-07-31T05:18:54;17.60;99.90
5962;DHT22;3007;50.770;0.250;2023-07-31T05:21:21;17.60;99.90
5962;DHT22;3007;50.770;0.250;2023-07-31T05:23:48;17.50;99.90
5962;DHT22;3007;50.770;0.250;2023-07-31T05:26:17;17.60;99.90
5962;DHT22;3007;50.770;0.250;2023-07-31T05:28:44;17.60;99.90
5962;DHT22;3007;50.770;0.250;2023-07-31T05:31:11;17.60;99.90
5962;DHT22;3007;50.770;0.250;2023-07-31T05:33:38;17.60;99.90
5962;DHT22;3007;50.770;0.250;2023-07-31T05:36:04;17.60;99.90
5962;DHT22;3007;50.770;0.250;2023-07-31T05:38:31;17.60;99.90
5962;DHT22;3007;50.770;0.250;2023-07-31T05:40:58;17.60;99.90
5962;DHT22;3007;50.770;0.250;2023-07-31T05:43:26;17.70;99.90
5962;DHT22;3007;50.770;0.250;2023-07-31T05:45:53;17.70;99.90
5962;DHT22;3007;50.770;0.250;2023-07-31T05:48:20;15.80;99.90
5962;DHT22;3007;50.770;0.250;2023-07-31T05:50:47;17.70;99.90
5962;DHT22;3007;50.770;0.250;2023-07-31T05:53:14;17.70;99.90
5962;DHT22;3007;50.770;0.250;2023-07-31T05:55:41;17.70;99.90
5962;DHT22;3007;50.770;0.250;2023-07-31T05:58:08;17.70;99.90
5962;DHT22;3007;50.770;0.250;2023-07-31T06:00:36;17.70;99.90
5962;DHT22;3007;50.770;0.250;2023-07-31T06:03:03;17.80;99.90
5962;DHT22;3007;50.770;0.250;2023-07-31T06:05:30;17.80;99.90
5962;DHT22;3007;50.770;0.250;2023-07-31T06:07:57;17.80;99.90
5962;DHT22;3007;50.770;0.250;2023-07-31T06:10:24;17.80;99.90
5962;DHT22;3007;50.770;0.250;2023-07-31T06:12:51;17.80;99.90
5962;DHT22;3007;50.770;0.250;2023-07-31T06:15:19;17.80;99.90
5962;DHT22;3007;50.770;0.250;2023-07-31T06:17:47;17.80;99.90
5962;DHT22;3007;50.770;0.250;2023-07-31T06:20:14;17.90;99.90
5962;DHT22;3007;50.770;0.250;2023-07-31T06:22:41;17.90;99.90
5962;DHT22;3007;50.770;0.250;2023-07-31T06:25:08;18.00;99.90
5962;DHT22;3007;50.770;0.250;2023-07-31T06:27:35;17.90;99.90
5962;DHT22;3007;50.770;0.250;2023-07-31T06:30:02;17.90;99.90
5962;DHT22;3007;50.770;0.250;2023-07-31T06:32:29;17.90;99.90
5962;DHT22;3007;50.770;0.250;2023-07-31T06:34:58;17.90;99.90
5962;DHT22;3007;50.770;0.250;2023-07-31T06:37:25;18.00;99.90
5962;DHT22;3007;50.770;0.250;2023-07-31T06:39:51;17.90;99.90
5962;DHT22;3007;50.770;0.250;2023-07-31T06:42:18;17.90;99.90
5962;DHT22;3007;50.770;0.250;2023-07-31T06:44:45;17.90;99.90
5962;DHT22;3007;50.770;0.250;2023-07-31T06:47:12;17.90;99.90
5962;DHT22;3007;50.770;0.250;2023-07-31T06:49:39;18.00;99.90
5962;DHT22;3007;50.770;0.250;2023-07-31T06:52:07;18.00;99.90
5962;DHT22;3007;50.770;0.250;2023-07-31T06:54:35;18.00;99.90
5962;DHT22;3007;50.770;0.250;2023-07-31T06:57:02;18.00;99.90
5962;DHT22;3007;50.770;0.250;2023-07-31T06:59:29;18.10;99.90
5962;DHT22;3007;50.770;0.250;2023-07-31T07:01:56;18.10;99.90
5962;DHT22;3007;50.770;0.250;2023-07-31T07:04:22;18.10;99.90
5962;DHT22;3007;50.770;0.250;2023-07-31T07:06:49;18.10;99.90
5962;DHT22;3007;50.770;0.250;2023-07-31T07:09:17;18.20;99.90
5962;DHT22;3007;50.770;0.250;2023-07-31T07:11:45;18.30;99.90
5962;DHT22;3007;50.770;0.250;2023-07-31T07:14:11;18.20;99.90
5962;DHT22;3007;50.770;0.250;2023-07-31T07:16:38;18.20;99.90
5962;DHT22;3007;50.770;0.250;2023-07-31T07:19:06;18.30;99.90
5962;DHT22;3007;50.770;0.250;2023-07-31T07:21:33;18.20;99.90
5962;DHT22;3007;50.770;0.250;2023-07-31T07:24:00;18.30;99.90
5962;DHT22;3007;50.770;0.250;2023-07-31T07:26:28;18.30;99.90
5962;DHT22;3007;50.770;0.250;2023-07-31T07:28:55;18.20;99.90
5962;DHT22;3007;50.770;0.250;2023-07-31T07:31:23;18.30;99.90
5962;DHT22;3007;50.770;0.250;2023-07-31T07:33:50;18.30;99.90
5962;DHT22;3007;50.770;0.250;2023-07-31T07:36:17;18.40;99.90
5962;DHT22;3007;50.770;0.250;2023-07-31T07:38:43;18.40;99.90
5962;DHT22;3007;50.770;0.250;2023-07-31T07:41:11;18.40;99.90
5962;DHT22;3007;50.770;0.250;2023-07-31T07:43:40;18.30;99.90
5962;DHT22;3007;50.770;0.250;2023-07-31T07:46:06;18.30;99.90
5962;DHT22;3007;50.770;0.250;2023-07-31T07:48:33;18.40;99.90
5962;DHT22;3007;50.770;0.250;2023-07-31T07:51:00;18.30;99.90
5962;DHT22;3007;50.770;0.250;2023-07-31T07:53:27;18.30;99.90
5962;DHT22;3007;50.770;0.250;2023-07-31T07:55:54;18.30;99.90
5962;DHT22;3007;50.770;0.250;2023-07-31T07:58:21;18.30;99.90
5962;DHT22;3007;50.770;0.250;2023-07-31T08:00:52;18.30;99.90
5962;DHT22;3007;50.770;0.250;2023-07-31T08:03:19;18.30;99.90
5962;DHT22;3007;50.770;0.250;2023-07-31T08:05:46;18.30;99.90
5962;DHT22;3007;50.770;0.250;2023-07-31T08:08:15;18.30;99.90
5962;DHT22;3007;50.770;0.250;2023-07-31T08:10:43;18.30;99.90
5962;DHT22;3007;50.770;0.250;2023-07-31T08:13:10;18.30;99.90
5962;DHT22;3007;50.770;0.250;2023-07-31T08:15:37;18.30;99.90
5962;DHT22;3007;50.770;0.250;2023-07-31T08:18:05;18.30;99.90
5962;DHT22;3007;50.770;0.250;2023-07-31T08:20:32;18.30;99.90
5962;DHT22;3007;50.770;0.250;2023-07-31T08:22:59;18.30;99.90
5962;DHT22;3007;50.770;0.250;2023-07-31T08:25:27;18.30;99.90
5962;DHT22;3007;50.770;0.250;2023-07-31T08:27:54;18.30;99.90
5962;DHT22;3007;50.770;0.250;2023-07-31T08:30:21;18.20;99.90
5962;DHT22;3007;50.770;0.250;2023-07-31T08:32:49;18.30;99.90
5962;DHT22;3007;50.770;0.250;2023-07-31T08:35:17;18.30;99.90
5962;DHT22;3007;50.770;0.250;2023-07-31T08:37:44;18.30;99.90
5962;DHT22;3007;50.770;0.250;2023-07-31T08:40:11;18.40;99.90
5962;DHT22;3007;50.770;0.250;2023-07-31T08:42:43;18.40;99.90
5962;DHT22;3007;50.770;0.250;2023-07-31T08:45:14;18.40;99.90
5962;DHT22;3007;50.770;0.250;2023-07-31T08:47:44;18.30;99.90
5962;DHT22;3007;50.770;0.250;2023-07-31T08:50:12;18.40;99.90
5962;DHT22;3007;50.770;0.250;2023-07-31T08:52:41;18.50;99.90
5962;DHT22;3007;50.770;0.250;2023-07-31T08:55:08;18.40;99.90
5962;DHT22;3007;50.770;0.250;2023-07-31T08:57:39;18.50;99.90
5962;DHT22;3007;50.770;0.250;2023-07-31T09:00:09;18.50;99.90
5962;DHT22;3007;50.770;0.250;2023-07-31T09:02:38;18.50;99.90
5962;DHT22;3007;50.770;0.250;2023-07-31T09:05:08;18.50;99.90
5962;DHT22;3007;50.770;0.250;2023-07-31T09:07:35;18.50;99.90
5962;DHT22;3007;50.770;0.250;2023-07-31T09:10:05;18.50;99.90
5962;DHT22;3007;50.770;0.250;2023-07-31T09:12:32;18.50;99.90
5962;DHT22;3007;50.770;0.250;2023-07-31T09:14:59;18.50;99.90
5962;DHT22;3007;50.770;0.250;2023-07-31T09:17:31;18.50;99.90
5962;DHT22;3007;50.770;0.250;2023-07-31T09:20:13;18.50;99.90
5962;DHT22;3007;50.770;0.250;2023-07-31T09:22:40;18.50;99.90
5962;DHT22;3007;50.770;0.250;2023-07-31T09:25:16;18.50;99.90
5962;DHT22;3007;50.770;0.250;2023-07-31T09:27:51;18.50;99.90
5962;DHT22;3007;50.770;0.250;2023-07-31T09:30:18;18.40;99.90
5962;DHT22;3007;50.770;0.250;2023-07-31T09:32:46;18.50;99.90
5962;DHT22;3007;50.770;0.250;2023-07-31T09:35:18;18.50;99.90
5962;DHT22;3007;50.770;0.250;2023-07-31T09:37:49;18.50;99.90
5962;DHT22;3007;50.770;0.250;2023-07-31T09:40:27;18.60;99.90
5962;DHT22;3007;50.770;0.250;2023-07-31T09:42:56;18.60;99.90
5962;DHT22;3007;50.770;0.250;2023-07-31T09:45:24;18.60;99.90
5962;DHT22;3007;50.770;0.250;2023-07-31T09:47:50;18.60;99.90
5962;DHT22;3007;50.770;0.250;2023-07-31T09:50:19;18.60;99.90
5962;DHT22;3007;50.770;0.250;2023-07-31T09:52:46;18.70;99.90
5962;DHT22;3007;50.770;0.250;2023-07-31T09:55:13;18.80;99.90
5962;DHT22;3007;50.770;0.250;2023-07-31T09:57:43;18.80;99.90
5962;DHT22;3007;50.770;0.250;2023-07-31T10:00:11;18.80;99.90
5962;DHT22;3007;50.770;0.250;2023-07-31T10:02:39;18.80;99.90
5962;DHT22;3007;50.770;0.250;2023-07-31T10:05:07;18.80;99.90
5962;DHT22;3007;50.770;0.250;2023-07-31T10:07:37;18.70;99.90
5962;DHT22;3007;50.770;0.250;2023-07-31T10:10:07;18.80;99.90
5962;DHT22;3007;50.770;0.250;2023-07-31T10:12:34;18.80;99.90
5962;DHT22;3007;50.770;0.250;2023-07-31T10:15:04;18.80;99.90
5962;DHT22;3007;50.770;0.250;2023-07-31T10:17:33;18.80;99.90
5962;DHT22;3007;50.770;0.250;2023-07-31T10:20:02;18.80;99.90
5962;DHT22;3007;50.770;0.250;2023-07-31T10:22:30;18.40;99.90
5962;DHT22;3007;50.770;0.250;2023-07-31T10:24:58;18.80;99.90
5962;DHT22;3007;50.770;0.250;2023-07-31T10:27:26;18.80;99.90
5962;DHT22;3007;50.770;0.250;2023-07-31T10:29:55;18.80;99.90
5962;DHT22;3007;50.770;0.250;2023-07-31T10:32:24;18.80;99.90
5962;DHT22;3007;50.770;0.250;2023-07-31T10:34:51;18.80;99.90
5962;DHT22;3007;50.770;0.250;2023-07-31T10:37:23;18.90;99.90
5962;DHT22;3007;50.770;0.250;2023-07-31T10:39:58;19.00;99.90
5962;DHT22;3007;50.770;0.250;2023-07-31T10:42:30;19.00;99.90
5962;DHT22;3007;50.770;0.250;2023-07-31T10:44:58;19.00;99.90
5962;DHT22;3007;50.770;0.250;2023-07-31T10:47:27;19.00;99.90
5962;DHT22;3007;50.770;0.250;2023-07-31T10:52:55;19.10;99.90
5962;DHT22;3007;50.770;0.250;2023-07-31T10:55:29;19.10;99.90
5962;DHT22;3007;50.770;0.250;2023-07-31T10:57:57;19.10;99.90
5962;DHT22;3007;50.770;0.250;2023-07-31T11:00:26;19.10;99.90
5962;DHT22;3007;50.770;0.250;2023-07-31T11:03:08;19.20;99.90
5962;DHT22;3007;50.770;0.250;2023-07-31T11:05:47;19.10;99.90
5962;DHT22;3007;50.770;0.250;2023-07-31T11:08:16;19.50;99.90
5962;DHT22;3007;50.770;0.250;2023-07-31T11:10:44;19.10;99.90
5962;DHT22;3007;50.770;0.250;2023-07-31T11:13:11;19.10;99.90
5962;DHT22;3007;50.770;0.250;2023-07-31T11:15:38;19.00;99.90
5962;DHT22;3007;50.770;0.250;2023-07-31T11:18:07;19.00;99.90
5962;DHT22;3007;50.770;0.250;2023-07-31T11:20:36;19.00;99.90
5962;DHT22;3007;50.770;0.250;2023-07-31T11:23:06;19.00;99.90
5962;DHT22;3007;50.770;0.250;2023-07-31T11:25:33;18.90;99.90
5962;DHT22;3007;50.770;0.250;2023-07-31T11:28:03;18.90;99.90
5962;DHT22;3007;50.770;0.250;2023-07-31T11:30:30;18.90;99.90
5962;DHT22;3007;50.770;0.250;2023-07-31T11:32:57;18.90;99.90
5962;DHT22;3007;50.770;0.250;2023-07-31T11:35:26;18.90;99.90
5962;DHT22;3007;50.770;0.250;2023-07-31T11:37:53;18.90;99.90
5962;DHT22;3007;50.770;0.250;2023-07-31T11:40:20;18.90;99.90
5962;DHT22;3007;50.770;0.250;2023-07-31T11:42:46;18.90;99.90
5962;DHT22;3007;50.770;0.250;2023-07-31T11:45:13;18.90;99.90
5962;DHT22;3007;50.770;0.250;2023-07-31T11:47:40;18.80;99.90
5962;DHT22;3007;50.770;0.250;2023-07-31T11:50:10;18.90;99.90
5962;DHT22;3007;50.770;0.250;2023-07-31T11:52:43;18.80;99.90
5962;DHT22;3007;50.770;0.250;2023-07-31T11:55:11;18.90;99.90
5962;DHT22;3007;50.770;0.250;2023-07-31T11:57:40;18.90;99.90
5962;DHT22;3007;50.770;0.250;2023-07-31T12:00:09;18.90;99.90
5962;DHT22;3007;50.770;0.250;2023-07-31T12:02:39;18.80;99.90
5962;DHT22;3007;50.770;0.250;2023-07-31T12:05:09;18.90;99.90
5962;DHT22;3007;50.770;0.250;2023-07-31T12:07:49;18.80;99.90
5962;DHT22;3007;50.770;0.250;2023-07-31T12:10:29;18.90;99.90
5962;DHT22;3007;50.770;0.250;2023-07-31T12:13:01;18.80;99.90
5962;DHT22;3007;50.770;0.250;2023-07-31T12:15:39;18.90;99.90
5962;DHT22;3007;50.770;0.250;2023-07-31T12:18:08;19.00;99.90
5962;DHT22;3007;50.770;0.250;2023-07-31T12:20:35;18.90;99.90
5962;DHT22;3007;50.770;0.250;2023-07-31T12:23:03;18.90;99.90
5962;DHT22;3007;50.770;0.250;2023-07-31T12:25:33;18.90;99.90
5962;DHT22;3007;50.770;0.250;2023-07-31T12:28:05;18.90;99.90
5962;DHT22;3007;50.770;0.250;2023-07-31T12:30:37;18.80;99.90
5962;DHT22;3007;50.770;0.250;2023-07-31T12:33:05;18.90;99.90
5962;DHT22;3007;50.770;0.250;2023-07-31T12:35:37;18.80;99.90
5962;DHT22;3007;50.770;0.250;2023-07-31T12:38:05;18.80;99.90
5962;DHT22;3007;50.770;0.250;2023-07-31T12:40:32;18.80;99.90
5962;DHT22;3007;50.770;0.250;2023-07-31T12:43:01;18.80;99.90
5962;DHT22;3007;50.770;0.250;2023-07-31T12:45:29;18.80;99.90
5962;DHT22;3007;50.770;0.250;2023-07-31T12:47:56;18.80;99.90
5962;DHT22;3007;50.770;0.250;2023-07-31T12:50:23;18.90;99.90
5962;DHT22;3007;50.770;0.250;2023-07-31T12:52:51;18.90;99.90
5962;DHT22;3007;50.770;0.250;2023-07-31T12:55:19;18.80;99.90
5962;DHT22;3007;50.770;0.250;2023-07-31T12:57:46;18.90;99.90
5962;DHT22;3007;50.770;0.250;2023-07-31T13:00:14;18.90;99.90
5962;DHT22;3007;50.770;0.250;2023-07-31T13:02:41;18.90;99.90
5962;DHT22;3007;50.770;0.250;2023-07-31T13:05:08;18.90;99.90
5962;DHT22;3007;50.770;0.250;2023-07-31T13:07:35;19.00;99.90
5962;DHT22;3007;50.770;0.250;2023-07-31T13:10:01;18.90;99.90
5962;DHT22;3007;50.770;0.250;2023-07-31T13:12:30;19.00;99.90
5962;DHT22;3007;50.770;0.250;2023-07-31T13:14:57;18.80;99.90
5962;DHT22;3007;50.770;0.250;2023-07-31T13:17:23;19.00;99.90
5962;DHT22;3007;50.770;0.250;2023-07-31T13:19:49;19.00;99.90
5962;DHT22;3007;50.770;0.250;2023-07-31T13:22:16;19.10;99.90
5962;DHT22;3007;50.770;0.250;2023-07-31T13:24:43;19.20;99.90
5962;DHT22;3007;50.770;0.250;2023-07-31T13:27:10;19.20;99.90
5962;DHT22;3007;50.770;0.250;2023-07-31T13:29:38;19.10;99.90
5962;DHT22;3007;50.770;0.250;2023-07-31T13:32:05;19.00;99.90
5962;DHT22;3007;50.770;0.250;2023-07-31T13:34:32;19.10;99.90
5962;DHT22;3007;50.770;0.250;2023-07-31T13:36:59;19.10;99.90
5962;DHT22;3007;50.770;0.250;2023-07-31T13:39:26;19.20;99.90
5962;DHT22;3007;50.770;0.250;2023-07-31T13:41:53;19.30;99.90
5962;DHT22;3007;50.770;0.250;2023-07-31T13:44:20;19.30;99.90
5962;DHT22;3007;50.770;0.250;2023-07-31T13:46:48;19.30;99.90
5962;DHT22;3007;50.770;0.250;2023-07-31T13:49:15;21.10;99.90
5962;DHT22;3007;50.770;0.250;2023-07-31T13:51:42;19.40;99.90
5962;DHT22;3007;50.770;0.250;2023-07-31T13:54:09;19.40;99.90
5962;DHT22;3007;50.770;0.250;2023-07-31T13:56:37;19.40;99.90
5962;DHT22;3007;50.770;0.250;2023-07-31T13:59:04;19.40;99.90
5962;DHT22;3007;50.770;0.250;2023-07-31T14:01:31;19.50;99.90
5962;DHT22;3007;50.770;0.250;2023-07-31T14:04:00;19.40;99.90
5962;DHT22;3007;50.770;0.250;2023-07-31T14:06:26;19.50;99.90
5962;DHT22;3007;50.770;0.250;2023-07-31T14:08:53;19.40;99.90
5962;DHT22;3007;50.770;0.250;2023-07-31T14:11:21;19.30;99.90
5962;DHT22;3007;50.770;0.250;2023-07-31T14:13:49;19.20;99.90
5962;DHT22;3007;50.770;0.250;2023-07-31T14:16:16;19.10;99.90
5962;DHT22;3007;50.770;0.250;2023-07-31T14:18:43;19.10;99.90
5962;DHT22;3007;50.770;0.250;2023-07-31T14:21:12;19.00;99.90
5962;DHT22;3007;50.770;0.250;2023-07-31T14:23:39;19.00;99.90
5962;DHT22;3007;50.770;0.250;2023-07-31T14:26:06;19.00;99.90
5962;DHT22;3007;50.770;0.250;2023-07-31T14:28:33;19.00;99.90
5962;DHT22;3007;50.770;0.250;2023-07-31T14:31:00;19.00;99.90
5962;DHT22;3007;50.770;0.250;2023-07-31T14:33:27;18.90;99.90
5962;DHT22;3007;50.770;0.250;2023-07-31T14:35:54;18.80;99.90
5962;DHT22;3007;50.770;0.250;2023-07-31T14:38:22;18.80;99.90
5962;DHT22;3007;50.770;0.250;2023-07-31T14:40:49;18.80;99.90
5962;DHT22;3007;50.770;0.250;2023-07-31T14:43:16;18.80;99.90
5962;DHT22;3007;50.770;0.250;2023-07-31T14:45:43;18.80;99.90
5962;DHT22;3007;50.770;0.250;2023-07-31T14:48:11;18.80;99.90
5962;DHT22;3007;50.770;0.250;2023-07-31T14:50:38;18.80;99.90
5962;DHT22;3007;50.770;0.250;2023-07-31T14:53:05;18.80;99.90
5962;DHT22;3007;50.770;0.250;2023-07-31T14:55:33;18.80;99.90
5962;DHT22;3007;50.770;0.250;2023-07-31T14:58:00;18.80;99.90
5962;DHT22;3007;50.770;0.250;2023-07-31T15:00:27;18.80;99.90
5962;DHT22;3007;50.770;0.250;2023-07-31T15:02:54;18.80;99.90
5962;DHT22;3007;50.770;0.250;2023-07-31T15:05:21;18.70;99.90
5962;DHT22;3007;50.770;0.250;2023-07-31T15:07:48;18.70;99.90
5962;DHT22;3007;50.770;0.250;2023-07-31T15:10:15;18.70;99.90
5962;DHT22;3007;50.770;0.250;2023-07-31T15:12:43;18.60;99.90
5962;DHT22;3007;50.770;0.250;2023-07-31T15:15:10;18.70;99.90
5962;DHT22;3007;50.770;0.250;2023-07-31T15:17:37;18.60;99.90
5962;DHT22;3007;50.770;0.250;2023-07-31T15:20:05;18.60;99.90
5962;DHT22;3007;50.770;0.250;2023-07-31T15:22:32;18.70;99.90
5962;DHT22;3007;50.770;0.250;2023-07-31T15:24:59;18.60;99.90
5962;DHT22;3007;50.770;0.250;2023-07-31T15:27:26;18.70;99.90
5962;DHT22;3007;50.770;0.250;2023-07-31T15:29:54;18.70;99.90
5962;DHT22;3007;50.770;0.250;2023-07-31T15:32:23;18.70;99.90
5962;DHT22;3007;50.770;0.250;2023-07-31T15:34:50;18.80;99.90
5962;DHT22;3007;50.770;0.250;2023-07-31T15:37:17;18.70;99.90
5962;DHT22;3007;50.770;0.250;2023-07-31T15:39:44;18.70;99.90
5962;DHT22;3007;50.770;0.250;2023-07-31T15:42:11;18.70;99.90
5962;DHT22;3007;50.770;0.250;2023-07-31T15:44:38;18.70;99.90
5962;DHT22;3007;50.770;0.250;2023-07-31T15:47:07;18.80;99.90
5962;DHT22;3007;50.770;0.250;2023-07-31T15:49:33;18.80;99.90
5962;DHT22;3007;50.770;0.250;2023-07-31T15:52:00;18.80;99.90
5962;DHT22;3007;50.770;0.250;2023-07-31T15:54:27;18.70;99.90
5962;DHT22;3007;50.770;0.250;2023-07-31T15:56:54;18.80;99.90
5962;DHT22;3007;50.770;0.250;2023-07-31T15:59:21;18.80;99.90
5962;DHT22;3007;50.770;0.250;2023-07-31T16:01:48;18.80;99.90
5962;DHT22;3007;50.770;0.250;2023-07-31T16:04:16;18.80;99.90
5962;DHT22;3007;50.770;0.250;2023-07-31T16:06:43;18.80;99.90
5962;DHT22;3007;50.770;0.250;2023-07-31T16:09:10;18.80;99.90